Архив погоды в Буе

Метеограмма Буй
Вторник, 14 Августа
Время местн. Темп Ветер Видим Явления Облачность нижн/средн/верх Атм. давл. Влжн Точка росы ВНГО R Сост. почвы Tg s
Напр Скр Прв ур.ст ур.м изм
12:00 +19.9° З 3 - 50 км - преимущественно облачно 750 759 +0.5 55% +10.7° 1 км - - - -
09:00 +15.4° З 2 - 20 км - переменная облачность 749 759 +1 77% +11.3° 1 км - - - -
06:00 +10.1° Ю-З 2 - 1.2 км дымка облачно 748 758 +0.9 94% +9.2° 1 км - Влажная (без луж) - -
03:00 +10.3° З 1 - 20 км - ясно 747 757 +0.8 94% +9.4° более 2.5 км - - - -
00:00 +11.8° З,Ю-З 1 - 20 км - ясно 747 756 +0.7 91% +10.4° более 2.5 км - - - -
Понедельник, 13 Августа
Время местн. Темп Ветер Видим Явления Облачность нижн/средн/верх Атм. давл. Влжн Точка росы ВНГО R Сост. почвы Tg s
Напр Скр Прв ур.ст ур.м изм
21:00 +13.8° З,Ю-З 1 - 20 км небо без изменений {ливневые осадки} облачно с прояснениями 746 755 +0.2 88% +11.9° 1 км - - - -
18:00 +16.5° З,Ю-З 2 - 50 км облака рассеиваются {ливневые осадки} облачно с прояснениями 746 755 -0.2 70% +11.1° 1 км - - - -
15:00 +15.7° З 3 - 12 км слабый ливневый дождь облачно 746 755 +0.7 76% +11.5° 1 км - - - -
12:00 +18.6° Ю-З 5 10 50 км - облачно с прояснениями 745 754 +0.1 49% +7.8° 1 км - - - -
09:00 +17.4° Ю-З 4 - 50 км - облачно с прояснениями 745 754 -0.4 62% +10° 1 км - - - -
06:00 +14.1° Ю-З 2 - 50 км - незначительная облачность 746 755 -0.2 75% +9.7° более 2.5 км - Сухая (без трещин) - -
03:00 +14.8° Ю-З 1 - 20 км - переменная облачность 746 755 -0.2 83% +11.9° более 2.5 км - - - -
00:00 +19° З 2 - 20 км - ясно 746 755 -0.1 68% +13° более 2.5 км - - - -
Воскресенье, 12 Августа
Время местн. Темп Ветер Видим Явления Облачность нижн/средн/верх Атм. давл. Влжн Точка росы ВНГО R Сост. почвы Tg s
Напр Скр Прв ур.ст ур.м изм
21:00 +19.8° Ю-З 1 - 20 км - преимущественно облачно 746 755 -1.4 66% +13.2° - - - - -
18:00 +25.1° Ю,Ю-З 2 - 50 км - преимущественно облачно 748 756 -1.2 43% +11.6° более 2.5 км - - - -
15:00 +27° Ю,Ю-З 3 - 50 км - преимущественно облачно 749 758 -1.1 47% +14.8° 1 км - - - -
12:00 +26.1° Ю,Ю-З 2 - 50 км - переменная облачность 750 759 -0.8 56% +16.5° более 2.5 км - - - -
09:00 +21.4° Ю-З 2 - 50 км - ясно 751 760 -1.1 68% +15.3° более 2.5 км - - - -
06:00 +14.9° Ю,Ю-З 1 - 15 км - ясно 752 761 -0.5 91% +13.4° более 2.5 км - Сухая (без трещин) - -
03:00 +14.2° Ю-З 1 - 20 км - ясно 752 762 -0.8 92% +12.9° более 2.5 км - - - -
00:00 +16.1° З,Ю-З 1 - 20 км - ясно 753 762 -0.5 87% +13.9° более 2.5 км - - - -
Суббота, 11 Августа
Время местн. Темп Ветер Видим Явления Облачность нижн/средн/верх Атм. давл. Влжн Точка росы ВНГО R Сост. почвы Tg s
Напр Скр Прв ур.ст ур.м изм
21:00 +19.2° З,Ю-З 1 - 20 км - ясно 754 763 -0.2 76% +14.9° более 2.5 км - - - -
18:00 +25.9° З 2 - 50 км - облачно 754 763 -0.9 44% +12.6° более 2.5 км - - - -
15:00 +26.3° З 3 - 50 км - облачно 755 764 -0.9 42% +12.2° 1 км - - - -
12:00 +26.6° З 4 - 50 км - облачно с прояснениями 756 765 -0.5 44% +13.5° 1.5 км - - - -
09:00 +22.7° Ю-З 2 - 50 км - облачно с прояснениями 756 765 -0.3 72% +17.4° 1 км - - - -